Aérodrome :
LOGIN :

S'inscrire | Disclaimer

   EN    FR    IT 

 










Légende :    VFR   VFR Marginal   IFR   IFR Intensif   IFR Très Intensif
Visi : 
Plafond : 
>= 8 km
>= 3000ft
5 à 8 km
1000 à 3000 ft
1500m à 5 km
500 à 1000 ft
800 à 1500m
200 à 500 ft
< 800m
< 200 ft
Symboles :   Orages  Brouillard  Fortes neiges  Fortes précipitations  Vent > 20 kt
SIGMETs :   Divers  Orages  Givrage  Turbulence  Onde Orograph.  Cendres Volcan.






- Altitude de l'aérodrome : 309 ft
- Code IATA : FNI


LFTW - Nîmes Garons

DERNIER METAR :
  • 232100Z AUTO 23008KT CAVOK 07/02 Q1004

METARs EXPIRÉS :
  • 232030Z AUTO 25009KT CAVOK 07/02 Q1004
  • 232000Z AUTO 24005KT CAVOK 07/01 Q1004
  • 231930Z AUTO 26008KT 220V300 CAVOK 08/01 Q1003 NOSIG
  • 231900Z AUTO 27010KT 230V300 CAVOK 08/01 Q1003 NOSIG
  • 231830Z AUTO 25009KT 200V280 CAVOK 08/02 Q1003 NOSIG
  • 231800Z AUTO 25007KT 210V280 CAVOK 08/02 Q1003 NOSIG
  • 231730Z AUTO 26012KT CAVOK 09/02 Q1003 NOSIG
  • 231700Z AUTO 26010KT CAVOK 10/02 Q1002 NOSIG
  • 231630Z AUTO 26007KT 230V290 9999 FEW045 BKN064 10/02 Q1002 NOSIG

TAF TAF LFTW
Valide du 23 à 15h jusqu'au 24 à 15h UTC


231400Z 2315/2415 26010KT CAVOK
TEMPO 2315/2317 26015G25KT
TEMPO 2403/2410 VRB03KT



MET'MAP, la Météo Aéronautique d'un coup d'oeil ! - Copyright ORBIFLY Décembre 2007 - Disclaimer

ORBIFLY MET'MAP TEAM :

Programmation & Développement : Alexandra Zaïnal
Sur une idée originale de : Baudouin d'Aumeries
Soutien technique & logistique : Manuel Goepfert
Assistance : Marc-Olivier Méhu




SOURCES & CREDITS :

   NOAA